To NAV CANADA Home Page Login to a new session Search on AWWS site Disclaimer Vers la page française équivalente Tips FAQ What's new on the site To the Forecasts and Observations / NOTAM section To "File a Flight Plan" website Publications and other links Update of the User's profile FIC Telephone Numbers My Weather Data Folder Route Weather Data Regional Weather Data Local Weather Data To the Forecasts and Observations / NOTAM section
Request Generated 03/19/2019 at 23:06:34 UTC . Weather information available at that time is displayed.

METAR/TAF

BURWASH/YT    (show WxCam)

METAR CYDB 192300Z AUTO 13013G24KT 9SM CLR 11/M01 A2974 RMK SLP096 DENSITY ALT 3000FT=
METAR CYDB 192200Z 13020G27KT 30SM FEW045 SCT140 SCT250 11/M01 A2972 RMK CU1AC2CI1 ACSL LAST STFD OBS/NXT 201400Z SLP089 DENSITY ALT
3100FT=
METAR CYDB 192100Z 14020G27KT 30SM FEW035 FEW050 SCT140 SCT250 11/M01 A2971 RMK CF1CU1AC2CI1 CF TR SLP090 DENSITY ALT 3000FT=

TAF CYDB 191738Z 1918/2006 12008KT P6SM FEW030 TEMPO 1918/1924
14015G25KT
FM200300 VRB03KT P6SM SCT040
RMK NXT FCST BY 200000Z=
Your time UTC time
Weather data provided by Environment Canada and NAV CANADA